sensor_id;sensor_type;location;lat;lon;timestamp;temperature;humidity
16838;DHT22;19510;54.486;9.046;2023-03-01T05:36:53;2.00;99.90
16838;DHT22;19510;54.486;9.046;2023-03-01T05:39:23;2.00;99.90
16838;DHT22;19510;54.486;9.046;2023-03-01T05:41:56;2.00;99.90
16838;DHT22;19510;54.486;9.046;2023-03-01T05:44:22;2.10;99.90
16838;DHT22;19510;54.486;9.046;2023-03-01T05:46:48;2.10;99.90
16838;DHT22;19510;54.486;9.046;2023-03-01T05:49:15;2.10;99.90
16838;DHT22;19510;54.486;9.046;2023-03-01T05:51:42;2.20;99.90
16838;DHT22;19510;54.486;9.046;2023-03-01T05:54:41;2.20;99.90
16838;DHT22;19510;54.486;9.046;2023-03-01T05:57:07;2.20;99.90
16838;DHT22;19510;54.486;9.046;2023-03-01T05:59:33;2.30;99.90
16838;DHT22;19510;54.486;9.046;2023-03-01T06:02:02;2.30;99.90
16838;DHT22;19510;54.486;9.046;2023-03-01T06:04:51;2.30;99.90
16838;DHT22;19510;54.486;9.046;2023-03-01T06:07:47;2.30;99.90
16838;DHT22;19510;54.486;9.046;2023-03-01T06:10:18;2.50;99.90
16838;DHT22;19510;54.486;9.046;2023-03-01T06:12:44;2.40;99.90
16838;DHT22;19510;54.486;9.046;2023-03-01T06:15:12;2.40;99.90
16838;DHT22;19510;54.486;9.046;2023-03-01T06:17:42;2.50;99.90
16838;DHT22;19510;54.486;9.046;2023-03-01T06:23:32;2.50;99.90
16838;DHT22;19510;54.486;9.046;2023-03-01T06:26:20;2.50;99.90
16838;DHT22;19510;54.486;9.046;2023-03-01T06:32:08;2.60;99.90
16838;DHT22;19510;54.486;9.046;2023-03-01T06:34:34;2.50;99.90
16838;DHT22;19510;54.486;9.046;2023-03-01T06:37:05;2.50;99.90
16838;DHT22;19510;54.486;9.046;2023-03-01T06:39:39;2.60;99.90
16838;DHT22;19510;54.486;9.046;2023-03-01T06:42:17;2.60;99.90
16838;DHT22;19510;54.486;9.046;2023-03-01T06:44:46;2.60;99.90
16838;DHT22;19510;54.486;9.046;2023-03-01T06:47:12;2.70;99.90
16838;DHT22;19510;54.486;9.046;2023-03-01T06:49:38;2.80;99.90
16838;DHT22;19510;54.486;9.046;2023-03-01T06:52:04;2.70;99.90
16838;DHT22;19510;54.486;9.046;2023-03-01T06:54:33;2.70;99.90
16838;DHT22;19510;54.486;9.046;2023-03-01T06:57:00;2.70;99.90
16838;DHT22;19510;54.486;9.046;2023-03-01T06:59:26;2.60;99.90
16838;DHT22;19510;54.486;9.046;2023-03-01T07:01:51;2.50;99.90
16838;DHT22;19510;54.486;9.046;2023-03-01T07:04:17;2.60;99.90
16838;DHT22;19510;54.486;9.046;2023-03-01T07:06:43;2.50;99.90
16838;DHT22;19510;54.486;9.046;2023-03-01T07:09:08;2.60;99.90
16838;DHT22;19510;54.486;9.046;2023-03-01T07:11:34;2.60;99.90
16838;DHT22;19510;54.486;9.046;2023-03-01T07:14:00;2.80;99.90
16838;DHT22;19510;54.486;9.046;2023-03-01T07:16:26;2.80;99.90
16838;DHT22;19510;54.486;9.046;2023-03-01T07:18:51;3.00;99.90
16838;DHT22;19510;54.486;9.046;2023-03-01T07:21:17;2.90;99.90
16838;DHT22;19510;54.486;9.046;2023-03-01T07:23:43;3.00;99.90
16838;DHT22;19510;54.486;9.046;2023-03-01T07:26:08;3.00;99.90
16838;DHT22;19510;54.486;9.046;2023-03-01T07:28:34;3.00;99.90
16838;DHT22;19510;54.486;9.046;2023-03-01T07:31:02;3.00;99.90
16838;DHT22;19510;54.486;9.046;2023-03-01T07:33:28;3.10;99.90
16838;DHT22;19510;54.486;9.046;2023-03-01T07:36:01;3.00;99.90
16838;DHT22;19510;54.486;9.046;2023-03-01T07:38:28;3.10;99.90
16838;DHT22;19510;54.486;9.046;2023-03-01T07:40:58;3.00;99.90
16838;DHT22;19510;54.486;9.046;2023-03-01T07:43:28;3.00;99.90
16838;DHT22;19510;54.486;9.046;2023-03-01T07:45:54;3.00;99.90
16838;DHT22;19510;54.486;9.046;2023-03-01T07:48:19;3.00;99.90
16838;DHT22;19510;54.486;9.046;2023-03-01T07:50:45;3.10;99.90
16838;DHT22;19510;54.486;9.046;2023-03-01T07:53:11;3.20;99.90
16838;DHT22;19510;54.486;9.046;2023-03-01T07:55:37;3.20;99.90
16838;DHT22;19510;54.486;9.046;2023-03-01T07:58:03;3.20;99.90
16838;DHT22;19510;54.486;9.046;2023-03-01T08:00:29;3.20;99.90
16838;DHT22;19510;54.486;9.046;2023-03-01T08:02:59;3.20;99.90
16838;DHT22;19510;54.486;9.046;2023-03-01T08:05:51;3.00;99.90
16838;DHT22;19510;54.486;9.046;2023-03-01T08:08:37;3.00;99.90
16838;DHT22;19510;54.486;9.046;2023-03-01T08:11:05;3.00;99.90
16838;DHT22;19510;54.486;9.046;2023-03-01T08:13:33;3.10;99.90
16838;DHT22;19510;54.486;9.046;2023-03-01T08:16:04;3.10;99.90
16838;DHT22;19510;54.486;9.046;2023-03-01T08:18:30;3.20;99.90
16838;DHT22;19510;54.486;9.046;2023-03-01T08:21:00;3.20;99.90
16838;DHT22;19510;54.486;9.046;2023-03-01T08:23:26;3.30;99.90
16838;DHT22;19510;54.486;9.046;2023-03-01T08:25:52;3.30;99.90
16838;DHT22;19510;54.486;9.046;2023-03-01T08:28:18;3.30;99.90
16838;DHT22;19510;54.486;9.046;2023-03-01T08:30:44;3.40;99.90
16838;DHT22;19510;54.486;9.046;2023-03-01T08:33:09;3.30;99.90
16838;DHT22;19510;54.486;9.046;2023-03-01T08:35:35;3.30;99.90
16838;DHT22;19510;54.486;9.046;2023-03-01T08:38:01;3.30;99.90
16838;DHT22;19510;54.486;9.046;2023-03-01T08:40:26;3.20;99.90
16838;DHT22;19510;54.486;9.046;2023-03-01T08:42:52;3.10;99.90
16838;DHT22;19510;54.486;9.046;2023-03-01T08:45:18;3.20;99.90
16838;DHT22;19510;54.486;9.046;2023-03-01T08:47:44;3.30;99.90
16838;DHT22;19510;54.486;9.046;2023-03-01T08:50:10;3.30;99.90
16838;DHT22;19510;54.486;9.046;2023-03-01T08:52:36;3.40;99.90
16838;DHT22;19510;54.486;9.046;2023-03-01T08:55:02;3.40;99.90
16838;DHT22;19510;54.486;9.046;2023-03-01T08:57:27;3.40;99.90
16838;DHT22;19510;54.486;9.046;2023-03-01T08:59:56;3.40;99.90
16838;DHT22;19510;54.486;9.046;2023-03-01T09:02:22;3.60;99.90
16838;DHT22;19510;54.486;9.046;2023-03-01T09:04:47;3.60;99.90
16838;DHT22;19510;54.486;9.046;2023-03-01T09:07:13;3.70;99.90
16838;DHT22;19510;54.486;9.046;2023-03-01T09:09:39;3.80;99.90
16838;DHT22;19510;54.486;9.046;2023-03-01T09:12:05;3.70;99.90
16838;DHT22;19510;54.486;9.046;2023-03-01T09:14:31;3.70;99.90
16838;DHT22;19510;54.486;9.046;2023-03-01T09:16:56;3.60;99.90
16838;DHT22;19510;54.486;9.046;2023-03-01T09:19:22;3.60;99.90
16838;DHT22;19510;54.486;9.046;2023-03-01T09:21:48;3.70;99.90
16838;DHT22;19510;54.486;9.046;2023-03-01T09:24:22;3.90;99.90
16838;DHT22;19510;54.486;9.046;2023-03-01T09:26:49;3.90;99.90
16838;DHT22;19510;54.486;9.046;2023-03-01T09:29:15;3.90;99.90
16838;DHT22;19510;54.486;9.046;2023-03-01T09:31:41;3.90;99.90
16838;DHT22;19510;54.486;9.046;2023-03-01T09:34:08;4.00;99.90
16838;DHT22;19510;54.486;9.046;2023-03-01T09:36:35;3.90;99.90
16838;DHT22;19510;54.486;9.046;2023-03-01T09:39:01;3.80;99.90
16838;DHT22;19510;54.486;9.046;2023-03-01T09:41:46;3.80;99.90
16838;DHT22;19510;54.486;9.046;2023-03-01T09:46:50;4.00;99.90
16838;DHT22;19510;54.486;9.046;2023-03-01T09:49:27;4.10;99.90
16838;DHT22;19510;54.486;9.046;2023-03-01T09:52:13;4.00;99.90
16838;DHT22;19510;54.486;9.046;2023-03-01T09:54:45;4.00;99.90
16838;DHT22;19510;54.486;9.046;2023-03-01T09:59:55;4.10;99.90
16838;DHT22;19510;54.486;9.046;2023-03-01T10:02:39;4.10;99.90
16838;DHT22;19510;54.486;9.046;2023-03-01T10:11:01;4.30;99.90
16838;DHT22;19510;54.486;9.046;2023-03-01T10:13:55;4.30;99.90
16838;DHT22;19510;54.486;9.046;2023-03-01T10:16:41;4.30;99.90
16838;DHT22;19510;54.486;9.046;2023-03-01T10:24:42;4.30;99.90
16838;DHT22;19510;54.486;9.046;2023-03-01T10:27:21;4.30;99.90
16838;DHT22;19510;54.486;9.046;2023-03-01T10:32:35;4.40;99.90
16838;DHT22;19510;54.486;9.046;2023-03-01T10:35:00;4.40;99.90
16838;DHT22;19510;54.486;9.046;2023-03-01T10:37:26;4.50;99.90
16838;DHT22;19510;54.486;9.046;2023-03-01T10:40:07;4.50;99.90
16838;DHT22;19510;54.486;9.046;2023-03-01T10:42:54;4.50;99.90
16838;DHT22;19510;54.486;9.046;2023-03-01T10:45:37;4.60;99.90
16838;DHT22;19510;54.486;9.046;2023-03-01T10:53:24;4.70;99.90
16838;DHT22;19510;54.486;9.046;2023-03-01T10:56:10;4.70;99.90
16838;DHT22;19510;54.486;9.046;2023-03-01T10:59:00;4.80;99.90
16838;DHT22;19510;54.486;9.046;2023-03-01T11:01:33;4.90;99.90
16838;DHT22;19510;54.486;9.046;2023-03-01T11:06:33;4.90;99.90
16838;DHT22;19510;54.486;9.046;2023-03-01T11:09:23;5.00;99.90
16838;DHT22;19510;54.486;9.046;2023-03-01T11:11:54;4.70;99.90
16838;DHT22;19510;54.486;9.046;2023-03-01T11:14:21;4.80;99.90
16838;DHT22;19510;54.486;9.046;2023-03-01T11:16:49;4.80;99.90
16838;DHT22;19510;54.486;9.046;2023-03-01T11:19:25;4.90;99.90
16838;DHT22;19510;54.486;9.046;2023-03-01T11:22:30;5.00;99.90
16838;DHT22;19510;54.486;9.046;2023-03-01T11:24:54;5.10;99.90
16838;DHT22;19510;54.486;9.046;2023-03-01T11:27:31;5.10;99.90
16838;DHT22;19510;54.486;9.046;2023-03-01T11:35:25;5.20;99.90
16838;DHT22;19510;54.486;9.046;2023-03-01T11:40:35;5.30;99.90
16838;DHT22;19510;54.486;9.046;2023-03-01T11:43:26;5.20;99.90
16838;DHT22;19510;54.486;9.046;2023-03-01T11:51:44;5.20;99.90
16838;DHT22;19510;54.486;9.046;2023-03-01T11:54:50;5.20;99.90
16838;DHT22;19510;54.486;9.046;2023-03-01T12:00:26;5.40;99.90
16838;DHT22;19510;54.486;9.046;2023-03-01T12:06:17;5.40;99.90
16838;DHT22;19510;54.486;9.046;2023-03-01T12:11:53;5.70;99.90
16838;DHT22;19510;54.486;9.046;2023-03-01T12:14:39;5.70;99.90
16838;DHT22;19510;54.486;9.046;2023-03-01T12:25:45;6.00;99.90
16838;DHT22;19510;54.486;9.046;2023-03-01T12:31:05;6.20;99.90
16838;DHT22;19510;54.486;9.046;2023-03-01T12:51:06;6.50;99.90
16838;DHT22;19510;54.486;9.046;2023-03-01T12:53:41;6.50;99.90
16838;DHT22;19510;54.486;9.046;2023-03-01T12:56:18;6.60;99.90
16838;DHT22;19510;54.486;9.046;2023-03-01T13:02:31;6.60;99.90
16838;DHT22;19510;54.486;9.046;2023-03-01T13:13:25;6.90;99.90
16838;DHT22;19510;54.486;9.046;2023-03-01T13:15:53;6.80;99.90
16838;DHT22;19510;54.486;9.046;2023-03-01T13:20:57;6.90;99.90
16838;DHT22;19510;54.486;9.046;2023-03-01T13:23:32;7.00;99.90
16838;DHT22;19510;54.486;9.046;2023-03-01T13:26:13;7.00;99.90
16838;DHT22;19510;54.486;9.046;2023-03-01T13:34:03;7.10;99.90
16838;DHT22;19510;54.486;9.046;2023-03-01T13:39:38;7.30;99.90
16838;DHT22;19510;54.486;9.046;2023-03-01T13:42:35;7.40;99.90
16838;DHT22;19510;54.486;9.046;2023-03-01T13:45:48;7.60;99.90
16838;DHT22;19510;54.486;9.046;2023-03-01T13:48:02;7.60;99.90
16838;DHT22;19510;54.486;9.046;2023-03-01T13:50:36;7.60;99.90
16838;DHT22;19510;54.486;9.046;2023-03-01T13:53:29;7.70;99.90
16838;DHT22;19510;54.486;9.046;2023-03-01T13:56:00;7.60;99.90
16838;DHT22;19510;54.486;9.046;2023-03-01T13:58:32;7.60;99.90
16838;DHT22;19510;54.486;9.046;2023-03-01T14:01:06;7.60;99.90
16838;DHT22;19510;54.486;9.046;2023-03-01T14:03:41;7.70;99.90
16838;DHT22;19510;54.486;9.046;2023-03-01T14:06:08;7.60;99.90
16838;DHT22;19510;54.486;9.046;2023-03-01T14:09:09;7.70;99.90
16838;DHT22;19510;54.486;9.046;2023-03-01T14:17:07;7.50;99.90
16838;DHT22;19510;54.486;9.046;2023-03-01T14:19:35;7.40;99.90
16838;DHT22;19510;54.486;9.046;2023-03-01T14:24:58;7.40;99.90
16838;DHT22;19510;54.486;9.046;2023-03-01T14:27:39;7.40;99.90
16838;DHT22;19510;54.486;9.046;2023-03-01T14:30:24;7.40;99.90
16838;DHT22;19510;54.486;9.046;2023-03-01T14:33:01;7.40;99.90
16838;DHT22;19510;54.486;9.046;2023-03-01T14:35:33;7.40;99.90
16838;DHT22;19510;54.486;9.046;2023-03-01T14:38:00;7.30;99.90
16838;DHT22;19510;54.486;9.046;2023-03-01T14:40:32;7.40;99.90
16838;DHT22;19510;54.486;9.046;2023-03-01T14:43:02;7.60;99.90
16838;DHT22;19510;54.486;9.046;2023-03-01T14:45:37;7.80;99.90
16838;DHT22;19510;54.486;9.046;2023-03-01T14:48:05;7.80;99.90
16838;DHT22;19510;54.486;9.046;2023-03-01T14:50:34;7.80;99.90
16838;DHT22;19510;54.486;9.046;2023-03-01T14:53:27;7.60;99.90
16838;DHT22;19510;54.486;9.046;2023-03-01T14:56:01;7.50;99.90
16838;DHT22;19510;54.486;9.046;2023-03-01T14:58:28;7.50;99.90
16838;DHT22;19510;54.486;9.046;2023-03-01T15:01:02;7.50;99.90
16838;DHT22;19510;54.486;9.046;2023-03-01T15:03:35;7.60;99.90
16838;DHT22;19510;54.486;9.046;2023-03-01T15:06:04;7.70;99.90
16838;DHT22;19510;54.486;9.046;2023-03-01T15:08:31;7.80;99.90
16838;DHT22;19510;54.486;9.046;2023-03-01T15:11:04;7.80;99.90
16838;DHT22;19510;54.486;9.046;2023-03-01T15:13:32;7.80;99.90
16838;DHT22;19510;54.486;9.046;2023-03-01T15:16:30;7.80;99.90
16838;DHT22;19510;54.486;9.046;2023-03-01T15:19:01;7.80;99.90
16838;DHT22;19510;54.486;9.046;2023-03-01T15:21:34;8.10;99.90
16838;DHT22;19510;54.486;9.046;2023-03-01T15:24:17;8.30;99.90
16838;DHT22;19510;54.486;9.046;2023-03-01T15:29:18;8.50;99.90
16838;DHT22;19510;54.486;9.046;2023-03-01T15:31:54;8.30;99.90
16838;DHT22;19510;54.486;9.046;2023-03-01T15:34:25;8.00;99.90
16838;DHT22;19510;54.486;9.046;2023-03-01T15:36:53;7.90;99.90
16838;DHT22;19510;54.486;9.046;2023-03-01T15:39:43;7.60;99.90
16838;DHT22;19510;54.486;9.046;2023-03-01T15:47:52;7.20;99.90
16838;DHT22;19510;54.486;9.046;2023-03-01T15:50:26;7.10;99.90
16838;DHT22;19510;54.486;9.046;2023-03-01T15:52:53;7.10;99.90
16838;DHT22;19510;54.486;9.046;2023-03-01T15:55:28;6.90;99.90
16838;DHT22;19510;54.486;9.046;2023-03-01T15:58:24;7.00;99.90
16838;DHT22;19510;54.486;9.046;2023-03-01T16:00:50;7.00;99.90
16838;DHT22;19510;54.486;9.046;2023-03-01T16:03:22;6.80;99.90
16838;DHT22;19510;54.486;9.046;2023-03-01T16:05:48;6.70;99.90
16838;DHT22;19510;54.486;9.046;2023-03-01T16:08:15;6.50;99.90
16838;DHT22;19510;54.486;9.046;2023-03-01T16:10:41;6.50;99.90
16838;DHT22;19510;54.486;9.046;2023-03-01T16:13:37;6.50;99.90
16838;DHT22;19510;54.486;9.046;2023-03-01T16:16:03;6.40;99.90
16838;DHT22;19510;54.486;9.046;2023-03-01T16:18:29;6.40;99.90
16838;DHT22;19510;54.486;9.046;2023-03-01T16:20:55;6.30;99.90
16838;DHT22;19510;54.486;9.046;2023-03-01T16:23:24;6.40;99.90
16838;DHT22;19510;54.486;9.046;2023-03-01T16:25:50;6.30;99.90
16838;DHT22;19510;54.486;9.046;2023-03-01T16:28:16;6.30;99.90
16838;DHT22;19510;54.486;9.046;2023-03-01T16:30:47;6.30;99.90
16838;DHT22;19510;54.486;9.046;2023-03-01T16:33:17;6.30;99.90
16838;DHT22;19510;54.486;9.046;2023-03-01T16:35:43;6.20;99.90
16838;DHT22;19510;54.486;9.046;2023-03-01T16:38:10;6.10;99.90
16838;DHT22;19510;54.486;9.046;2023-03-01T16:40:38;6.10;99.90
16838;DHT22;19510;54.486;9.046;2023-03-01T16:43:06;6.10;99.90
16838;DHT22;19510;54.486;9.046;2023-03-01T16:45:35;6.00;99.90
16838;DHT22;19510;54.486;9.046;2023-03-01T16:48:02;6.00;99.90
16838;DHT22;19510;54.486;9.046;2023-03-01T16:50:28;6.00;99.90
16838;DHT22;19510;54.486;9.046;2023-03-01T16:52:54;6.10;99.90
16838;DHT22;19510;54.486;9.046;2023-03-01T16:55:22;6.10;99.90
16838;DHT22;19510;54.486;9.046;2023-03-01T16:57:51;6.00;99.90
16838;DHT22;19510;54.486;9.046;2023-03-01T17:00:19;6.10;99.90
16838;DHT22;19510;54.486;9.046;2023-03-01T17:02:45;6.10;99.90
16838;DHT22;19510;54.486;9.046;2023-03-01T17:05:14;6.10;99.90
16838;DHT22;19510;54.486;9.046;2023-03-01T17:07:51;6.00;99.90
16838;DHT22;19510;54.486;9.046;2023-03-01T17:10:16;6.10;99.90
16838;DHT22;19510;54.486;9.046;2023-03-01T17:12:45;6.00;99.90
16838;DHT22;19510;54.486;9.046;2023-03-01T17:15:15;5.90;99.90
16838;DHT22;19510;54.486;9.046;2023-03-01T17:17:41;5.90;99.90
16838;DHT22;19510;54.486;9.046;2023-03-01T17:20:09;5.90;99.90
16838;DHT22;19510;54.486;9.046;2023-03-01T17:22:35;5.90;99.90
16838;DHT22;19510;54.486;9.046;2023-03-01T17:25:06;5.80;99.90
16838;DHT22;19510;54.486;9.046;2023-03-01T17:27:32;5.80;99.90
16838;DHT22;19510;54.486;9.046;2023-03-01T17:29:59;5.90;99.90
16838;DHT22;19510;54.486;9.046;2023-03-01T17:32:25;5.90;99.90
16838;DHT22;19510;54.486;9.046;2023-03-01T17:34:51;5.90;99.90
16838;DHT22;19510;54.486;9.046;2023-03-01T17:37:17;5.90;99.90
16838;DHT22;19510;54.486;9.046;2023-03-01T17:39:42;5.90;99.90
16838;DHT22;19510;54.486;9.046;2023-03-01T17:42:08;5.90;99.90
16838;DHT22;19510;54.486;9.046;2023-03-01T17:44:34;5.80;99.90
16838;DHT22;19510;54.486;9.046;2023-03-01T17:47:04;5.80;99.90
16838;DHT22;19510;54.486;9.046;2023-03-01T17:49:35;5.90;99.90
16838;DHT22;19510;54.486;9.046;2023-03-01T17:52:00;5.80;99.90
16838;DHT22;19510;54.486;9.046;2023-03-01T17:54:26;5.80;99.90
16838;DHT22;19510;54.486;9.046;2023-03-01T17:56:52;5.80;99.90
16838;DHT22;19510;54.486;9.046;2023-03-01T17:59:21;5.70;99.90
16838;DHT22;19510;54.486;9.046;2023-03-01T18:01:46;5.70;99.90
16838;DHT22;19510;54.486;9.046;2023-03-01T18:04:15;5.70;99.90
16838;DHT22;19510;54.486;9.046;2023-03-01T18:06:43;5.70;99.90
16838;DHT22;19510;54.486;9.046;2023-03-01T18:09:08;5.60;99.90
16838;DHT22;19510;54.486;9.046;2023-03-01T18:11:35;5.60;99.90
16838;DHT22;19510;54.486;9.046;2023-03-01T18:14:01;5.70;99.90
16838;DHT22;19510;54.486;9.046;2023-03-01T18:16:26;5.70;99.90
16838;DHT22;19510;54.486;9.046;2023-03-01T18:18:56;5.70;99.90
16838;DHT22;19510;54.486;9.046;2023-03-01T18:21:25;5.70;99.90
16838;DHT22;19510;54.486;9.046;2023-03-01T18:23:53;5.70;99.90
16838;DHT22;19510;54.486;9.046;2023-03-01T18:26:20;5.60;99.90
16838;DHT22;19510;54.486;9.046;2023-03-01T18:28:48;5.60;99.90
16838;DHT22;19510;54.486;9.046;2023-03-01T18:31:16;5.60;99.90
16838;DHT22;19510;54.486;9.046;2023-03-01T18:33:44;5.50;99.90
16838;DHT22;19510;54.486;9.046;2023-03-01T18:36:19;5.50;99.90
16838;DHT22;19510;54.486;9.046;2023-03-01T18:38:47;5.50;99.90
16838;DHT22;19510;54.486;9.046;2023-03-01T18:41:16;5.50;99.90
16838;DHT22;19510;54.486;9.046;2023-03-01T18:43:41;5.40;99.90
16838;DHT22;19510;54.486;9.046;2023-03-01T18:46:07;5.30;99.90
16838;DHT22;19510;54.486;9.046;2023-03-01T18:48:33;5.30;99.90
16838;DHT22;19510;54.486;9.046;2023-03-01T18:51:12;5.30;99.90
16838;DHT22;19510;54.486;9.046;2023-03-01T18:53:38;5.30;99.90
16838;DHT22;19510;54.486;9.046;2023-03-01T18:56:07;5.20;99.90
16838;DHT22;19510;54.486;9.046;2023-03-01T18:58:33;5.30;99.90
16838;DHT22;19510;54.486;9.046;2023-03-01T19:01:03;5.20;99.90
16838;DHT22;19510;54.486;9.046;2023-03-01T19:03:34;5.20;99.90
16838;DHT22;19510;54.486;9.046;2023-03-01T19:06:00;5.20;99.90
16838;DHT22;19510;54.486;9.046;2023-03-01T19:08:27;5.20;99.90
16838;DHT22;19510;54.486;9.046;2023-03-01T19:11:04;5.20;99.90
16838;DHT22;19510;54.486;9.046;2023-03-01T19:13:33;5.20;99.90
16838;DHT22;19510;54.486;9.046;2023-03-01T19:16:22;5.10;99.90
16838;DHT22;19510;54.486;9.046;2023-03-01T19:18:49;5.00;99.90
16838;DHT22;19510;54.486;9.046;2023-03-01T19:21:20;4.90;99.90
16838;DHT22;19510;54.486;9.046;2023-03-01T19:23:49;4.90;99.90
16838;DHT22;19510;54.486;9.046;2023-03-01T19:26:21;4.80;99.90
16838;DHT22;19510;54.486;9.046;2023-03-01T19:28:50;4.80;99.90
16838;DHT22;19510;54.486;9.046;2023-03-01T19:31:20;4.70;99.90
16838;DHT22;19510;54.486;9.046;2023-03-01T19:33:49;4.70;99.90
16838;DHT22;19510;54.486;9.046;2023-03-01T19:36:15;4.60;99.90
16838;DHT22;19510;54.486;9.046;2023-03-01T19:38:42;4.70;99.90
16838;DHT22;19510;54.486;9.046;2023-03-01T19:41:13;4.70;99.90
16838;DHT22;19510;54.486;9.046;2023-03-01T19:43:40;4.60;99.90
16838;DHT22;19510;54.486;9.046;2023-03-01T19:46:10;4.70;99.90
16838;DHT22;19510;54.486;9.046;2023-03-01T19:48:36;4.60;99.90
16838;DHT22;19510;54.486;9.046;2023-03-01T19:51:04;4.60;99.90
16838;DHT22;19510;54.486;9.046;2023-03-01T19:53:30;4.50;99.90
16838;DHT22;19510;54.486;9.046;2023-03-01T19:55:57;4.50;99.90
16838;DHT22;19510;54.486;9.046;2023-03-01T19:58:25;4.50;99.90
16838;DHT22;19510;54.486;9.046;2023-03-01T20:00:51;4.30;99.90
16838;DHT22;19510;54.486;9.046;2023-03-01T20:03:24;4.40;99.90
16838;DHT22;19510;54.486;9.046;2023-03-01T20:05:51;4.40;99.90
16838;DHT22;19510;54.486;9.046;2023-03-01T20:08:17;4.40;99.90
16838;DHT22;19510;54.486;9.046;2023-03-01T20:10:42;4.40;99.90
16838;DHT22;19510;54.486;9.046;2023-03-01T20:13:10;4.30;99.90
16838;DHT22;19510;54.486;9.046;2023-03-01T20:15:40;4.20;99.90
16838;DHT22;19510;54.486;9.046;2023-03-01T20:18:06;4.10;99.90
16838;DHT22;19510;54.486;9.046;2023-03-01T20:20:36;4.10;99.90
16838;DHT22;19510;54.486;9.046;2023-03-01T20:23:03;4.10;99.90
16838;DHT22;19510;54.486;9.046;2023-03-01T20:25:28;4.20;99.90
16838;DHT22;19510;54.486;9.046;2023-03-01T20:27:56;4.10;99.90
16838;DHT22;19510;54.486;9.046;2023-03-01T20:30:24;4.00;99.90
16838;DHT22;19510;54.486;9.046;2023-03-01T20:32:50;4.00;99.90
16838;DHT22;19510;54.486;9.046;2023-03-01T20:35:18;4.00;99.90
16838;DHT22;19510;54.486;9.046;2023-03-01T20:37:47;4.00;99.90
16838;DHT22;19510;54.486;9.046;2023-03-01T20:40:20;4.10;99.90
16838;DHT22;19510;54.486;9.046;2023-03-01T20:42:51;4.10;99.90
16838;DHT22;19510;54.486;9.046;2023-03-01T20:45:19;4.00;99.90
16838;DHT22;19510;54.486;9.046;2023-03-01T20:47:46;3.90;99.90
16838;DHT22;19510;54.486;9.046;2023-03-01T20:50:12;3.80;99.90
16838;DHT22;19510;54.486;9.046;2023-03-01T20:52:38;3.80;99.90
16838;DHT22;19510;54.486;9.046;2023-03-01T20:55:07;3.80;99.90
16838;DHT22;19510;54.486;9.046;2023-03-01T20:57:33;3.80;99.90
16838;DHT22;19510;54.486;9.046;2023-03-01T21:00:00;3.80;99.90
16838;DHT22;19510;54.486;9.046;2023-03-01T21:02:28;3.80;99.90
16838;DHT22;19510;54.486;9.046;2023-03-01T21:04:53;3.80;99.90
16838;DHT22;19510;54.486;9.046;2023-03-01T21:07:19;3.80;99.90
16838;DHT22;19510;54.486;9.046;2023-03-01T21:09:47;3.80;99.90
16838;DHT22;19510;54.486;9.046;2023-03-01T21:12:13;3.80;99.90
16838;DHT22;19510;54.486;9.046;2023-03-01T21:14:39;3.80;99.90
16838;DHT22;19510;54.486;9.046;2023-03-01T21:17:13;3.90;99.90
16838;DHT22;19510;54.486;9.046;2023-03-01T21:19:41;3.80;99.90
16838;DHT22;19510;54.486;9.046;2023-03-01T21:22:12;3.80;99.90
16838;DHT22;19510;54.486;9.046;2023-03-01T21:24:38;3.70;99.90
16838;DHT22;19510;54.486;9.046;2023-03-01T21:27:04;3.70;99.90
16838;DHT22;19510;54.486;9.046;2023-03-01T21:29:40;3.70;99.90
16838;DHT22;19510;54.486;9.046;2023-03-01T21:32:07;3.80;99.90
16838;DHT22;19510;54.486;9.046;2023-03-01T21:34:34;3.70;99.90
16838;DHT22;19510;54.486;9.046;2023-03-01T21:37:00;3.80;99.90
16838;DHT22;19510;54.486;9.046;2023-03-01T21:39:30;3.80;99.90
16838;DHT22;19510;54.486;9.046;2023-03-01T21:41:57;3.80;99.90
16838;DHT22;19510;54.486;9.046;2023-03-01T21:44:25;3.80;99.90
16838;DHT22;19510;54.486;9.046;2023-03-01T21:46:52;3.80;99.90
16838;DHT22;19510;54.486;9.046;2023-03-01T21:49:19;3.80;99.90
16838;DHT22;19510;54.486;9.046;2023-03-01T21:51:45;3.70;99.90
16838;DHT22;19510;54.486;9.046;2023-03-01T21:54:15;3.60;99.90
16838;DHT22;19510;54.486;9.046;2023-03-01T21:56:42;3.60;99.90
16838;DHT22;19510;54.486;9.046;2023-03-01T21:59:14;3.60;99.90
16838;DHT22;19510;54.486;9.046;2023-03-01T22:01:46;3.50;99.90
16838;DHT22;19510;54.486;9.046;2023-03-01T22:04:12;3.50;99.90
16838;DHT22;19510;54.486;9.046;2023-03-01T22:06:40;3.50;99.90
16838;DHT22;19510;54.486;9.046;2023-03-01T22:09:21;3.50;99.90
16838;DHT22;19510;54.486;9.046;2023-03-01T22:11:49;3.50;99.90
16838;DHT22;19510;54.486;9.046;2023-03-01T22:14:16;3.50;99.90
16838;DHT22;19510;54.486;9.046;2023-03-01T22:16:43;3.60;99.90
16838;DHT22;19510;54.486;9.046;2023-03-01T22:19:10;3.60;99.90
16838;DHT22;19510;54.486;9.046;2023-03-01T22:21:46;3.70;99.90
16838;DHT22;19510;54.486;9.046;2023-03-01T22:24:13;3.70;99.90
16838;DHT22;19510;54.486;9.046;2023-03-01T22:26:44;3.70;99.90
16838;DHT22;19510;54.486;9.046;2023-03-01T22:29:13;3.70;99.90
16838;DHT22;19510;54.486;9.046;2023-03-01T22:31:44;3.70;99.90
16838;DHT22;19510;54.486;9.046;2023-03-01T22:34:11;3.60;99.90
16838;DHT22;19510;54.486;9.046;2023-03-01T22:36:39;3.60;99.90
16838;DHT22;19510;54.486;9.046;2023-03-01T22:39:05;3.60;99.90
16838;DHT22;19510;54.486;9.046;2023-03-01T22:41:37;3.60;99.90
16838;DHT22;19510;54.486;9.046;2023-03-01T22:44:06;3.50;99.90
16838;DHT22;19510;54.486;9.046;2023-03-01T22:46:31;3.50;99.90
16838;DHT22;19510;54.486;9.046;2023-03-01T22:48:57;3.50;99.90
16838;DHT22;19510;54.486;9.046;2023-03-01T22:51:28;3.50;99.90
16838;DHT22;19510;54.486;9.046;2023-03-01T22:53:54;3.50;99.90
16838;DHT22;19510;54.486;9.046;2023-03-01T22:56:23;3.50;99.90
16838;DHT22;19510;54.486;9.046;2023-03-01T22:58:49;3.50;99.90
16838;DHT22;19510;54.486;9.046;2023-03-01T23:01:18;3.60;99.90
16838;DHT22;19510;54.486;9.046;2023-03-01T23:03:47;3.60;99.90
16838;DHT22;19510;54.486;9.046;2023-03-01T23:06:16;3.60;99.90
16838;DHT22;19510;54.486;9.046;2023-03-01T23:08:43;3.60;99.90
16838;DHT22;19510;54.486;9.046;2023-03-01T23:11:15;3.50;99.90
16838;DHT22;19510;54.486;9.046;2023-03-01T23:13:44;3.50;99.90
16838;DHT22;19510;54.486;9.046;2023-03-01T23:16:10;3.50;99.90
16838;DHT22;19510;54.486;9.046;2023-03-01T23:18:42;3.40;99.90
16838;DHT22;19510;54.486;9.046;2023-03-01T23:21:15;3.30;99.90
16838;DHT22;19510;54.486;9.046;2023-03-01T23:23:42;3.20;99.90
